QLS weather

Lausanne-Bl├ęcherette Airport
Lausanne, Canton of Vaud, Switzerland

Public forecast

Using degrees Celsius for public forecast. Weather courtesy of forecast.io.

METAR (pilot weather report)

Closest report is Payerne Air Base, 21.7 nm (40.2 km) NE. Retrieved 2019/03/19 20:20 UTC (22 minutes ago):

LSMP 192020Z 02007KT CAVOK 04/M02 Q1028 RMK BLU

TAF (pilot weather forecast)

Forecast is more than 6 hours old.

Closest forecast is Payerne Air Base, 21.7 nm (40.2 km) NE. Retrieved 2019/03/19 10:00 UTC (11 hours ago):

TAF LSMP 190925Z 1910/2016 05013KT CAVOK